createdAt,value
2022-09-28T00:00:06.115Z,958.50
2022-09-28T00:01:06.103Z,958.51
2022-09-28T00:02:06.228Z,958.51
2022-09-28T00:03:06.184Z,958.54
2022-09-28T00:04:06.064Z,958.54
2022-09-28T00:05:06.052Z,958.55
2022-09-28T00:06:06.078Z,958.49
2022-09-28T00:07:06.028Z,958.50
2022-09-28T00:08:06.015Z,958.40
2022-09-28T00:09:06.000Z,958.44
2022-09-28T00:10:05.990Z,958.47
2022-09-28T00:11:05.975Z,958.46
2022-09-28T00:12:05.966Z,958.39
2022-09-28T00:13:05.953Z,958.37
2022-09-28T00:14:05.940Z,958.39
2022-09-28T00:15:05.929Z,958.17
2022-09-28T00:16:05.960Z,958.30
2022-09-28T00:17:05.901Z,958.25
2022-09-28T00:18:05.890Z,958.24
2022-09-28T00:19:05.877Z,958.24
2022-09-28T00:20:05.866Z,958.22
2022-09-28T00:21:05.875Z,958.09
2022-09-28T00:22:05.860Z,958.16
2022-09-28T00:23:05.826Z,958.16
2022-09-28T00:24:05.820Z,958.14
2022-09-28T00:25:05.804Z,958.04
2022-09-28T00:26:05.794Z,958.07
2022-09-28T00:27:05.781Z,958.01
2022-09-28T00:28:05.768Z,958.03
2022-09-28T00:29:05.753Z,958.04
2022-09-28T00:30:05.744Z,958.03
2022-09-28T00:31:05.861Z,958.02
2022-09-28T00:32:05.718Z,958.05
2022-09-28T00:33:05.704Z,957.98
2022-09-28T00:34:05.694Z,958.01
2022-09-28T00:35:05.779Z,957.96
2022-09-28T00:36:05.677Z,957.98
2022-09-28T00:37:05.655Z,957.95
2022-09-28T00:38:05.665Z,957.95
2022-09-28T00:39:05.630Z,957.95
2022-09-28T00:40:05.620Z,957.86
2022-09-28T00:41:05.605Z,957.94
2022-09-28T00:42:05.594Z,957.86
2022-09-28T00:43:05.581Z,957.72
2022-09-28T00:44:05.570Z,957.79
2022-09-28T00:45:05.556Z,957.75
2022-09-28T00:46:05.619Z,957.69
2022-09-28T00:47:05.532Z,957.75
2022-09-28T00:48:05.520Z,957.74
2022-09-28T00:49:05.506Z,957.65
2022-09-28T00:50:05.495Z,957.68
2022-09-28T00:51:05.483Z,957.62
2022-09-28T00:52:05.471Z,957.64
2022-09-28T00:53:05.455Z,957.60
2022-09-28T00:54:05.464Z,957.58
2022-09-28T00:55:05.434Z,957.43
2022-09-28T00:56:05.422Z,957.59
2022-09-28T00:57:05.409Z,957.58
2022-09-28T00:58:05.397Z,957.52
2022-09-28T00:59:05.382Z,957.54
2022-09-28T01:00:05.373Z,957.50
2022-09-28T01:01:05.431Z,957.59
2022-09-28T01:02:05.392Z,957.53
2022-09-28T01:03:05.345Z,957.54
2022-09-28T01:04:05.322Z,957.48
2022-09-28T01:05:05.309Z,957.43
2022-09-28T01:06:05.297Z,957.43
2022-09-28T01:07:05.285Z,957.45
2022-09-28T01:08:05.277Z,957.43
2022-09-28T01:09:05.259Z,957.45
2022-09-28T01:10:05.272Z,957.34
2022-09-28T01:11:05.240Z,957.32
2022-09-28T01:12:05.225Z,957.29
2022-09-28T01:13:05.209Z,957.28
2022-09-28T01:14:05.199Z,957.32
2022-09-28T01:15:05.185Z,957.23
2022-09-28T01:16:05.218Z,957.23
2022-09-28T01:17:05.160Z,957.20
2022-09-28T01:18:05.149Z,957.24
2022-09-28T01:19:05.134Z,957.26
2022-09-28T01:20:05.124Z,957.16
2022-09-28T01:21:05.107Z,957.16
2022-09-28T01:22:05.099Z,957.14
2022-09-28T01:23:05.084Z,957.20
2022-09-28T01:24:05.074Z,957.22
2022-09-28T01:25:05.059Z,957.24
2022-09-28T01:26:05.068Z,957.17
2022-09-28T01:27:05.035Z,957.29
2022-09-28T01:28:05.026Z,957.25
2022-09-28T01:29:05.009Z,957.17
2022-09-28T01:30:04.998Z,957.11
2022-09-28T01:31:04.989Z,957.23
2022-09-28T01:32:04.973Z,957.07
2022-09-28T01:33:04.971Z,957.11
2022-09-28T01:34:04.947Z,957.04
2022-09-28T01:35:04.933Z,956.97
2022-09-28T01:36:04.925Z,956.93
2022-09-28T01:37:04.907Z,956.95
2022-09-28T01:38:04.998Z,956.96
2022-09-28T01:39:04.884Z,956.94
2022-09-28T01:40:04.874Z,956.90
2022-09-28T01:41:04.859Z,956.90
2022-09-28T01:42:04.868Z,956.83
2022-09-28T01:43:04.833Z,956.82
2022-09-28T01:44:04.823Z,956.81
2022-09-28T01:45:04.815Z,956.81
2022-09-28T01:46:04.915Z,956.80
2022-09-28T01:47:04.783Z,956.72
2022-09-28T01:48:04.775Z,956.75
2022-09-28T01:49:04.758Z,956.59
2022-09-28T01:50:04.748Z,956.67
2022-09-28T01:51:04.733Z,956.63
2022-09-28T01:52:04.724Z,956.62
2022-09-28T01:53:04.706Z,956.61
2022-09-28T01:54:04.696Z,956.61
2022-09-28T01:55:04.682Z,956.51
2022-09-28T01:56:04.686Z,956.52
2022-09-28T01:57:04.656Z,956.53
2022-09-28T01:58:04.665Z,956.56
2022-09-28T01:59:04.631Z,956.51
2022-09-28T02:00:04.620Z,956.48
2022-09-28T02:01:04.668Z,956.44
2022-09-28T02:02:04.631Z,956.47
2022-09-28T02:03:04.580Z,956.36
2022-09-28T02:04:04.572Z,956.42
2022-09-28T02:05:04.558Z,956.32
2022-09-28T02:06:04.547Z,956.26
2022-09-28T02:07:04.531Z,956.25
2022-09-28T02:08:04.521Z,956.28
2022-09-28T02:09:04.505Z,956.21
2022-09-28T02:10:04.497Z,956.23
2022-09-28T02:11:04.481Z,956.22
2022-09-28T02:12:04.471Z,956.13
2022-09-28T02:13:04.476Z,956.14
2022-09-28T02:14:04.465Z,956.19
2022-09-28T02:15:04.431Z,956.04
2022-09-28T02:16:04.463Z,956.13
2022-09-28T02:17:04.405Z,956.13
2022-09-28T02:18:04.410Z,956.12
2022-09-28T02:19:04.381Z,956.08
2022-09-28T02:20:04.369Z,956.10
2022-09-28T02:21:04.356Z,956.06
2022-09-28T02:22:04.356Z,956.01
2022-09-28T02:23:04.333Z,955.88
2022-09-28T02:24:04.320Z,955.94
2022-09-28T02:25:04.304Z,955.89
2022-09-28T02:26:04.294Z,955.91
2022-09-28T02:27:04.280Z,955.89
2022-09-28T02:28:04.269Z,955.94
2022-09-28T02:29:04.255Z,955.90
2022-09-28T02:30:04.265Z,955.90
2022-09-28T02:31:04.293Z,955.85
2022-09-28T02:32:04.269Z,955.77
2022-09-28T02:33:04.203Z,955.80
2022-09-28T02:35:04.182Z,955.85
2022-09-28T02:36:04.167Z,955.81
2022-09-28T02:37:04.155Z,955.79
2022-09-28T02:38:04.140Z,955.76
2022-09-28T02:39:04.130Z,955.74
2022-09-28T02:40:04.117Z,955.64
2022-09-28T02:41:04.106Z,955.67
2022-09-28T02:42:04.091Z,955.62
2022-09-28T02:43:04.079Z,955.64
2022-09-28T02:44:04.065Z,955.57
2022-09-28T02:45:04.053Z,955.63
2022-09-28T02:46:04.078Z,955.60
2022-09-28T02:47:04.031Z,955.53
2022-09-28T02:48:04.016Z,955.56
2022-09-28T02:49:20.774Z,955.51
2022-09-28T02:50:03.990Z,955.58
2022-09-28T02:51:03.978Z,955.52
2022-09-28T02:52:03.965Z,955.54
2022-09-28T02:53:03.958Z,955.53
2022-09-28T02:54:03.941Z,955.57
2022-09-28T02:55:03.928Z,955.50
2022-09-28T02:56:03.914Z,955.56
2022-09-28T02:57:03.903Z,955.58
2022-09-28T02:58:03.891Z,955.54
2022-09-28T02:59:03.877Z,955.43
2022-09-28T03:00:03.866Z,955.46
2022-09-28T03:01:03.919Z,955.42
2022-09-28T03:02:03.977Z,955.37
2022-09-28T03:03:03.829Z,955.37
2022-09-28T03:04:03.814Z,955.42
2022-09-28T03:05:03.804Z,955.45
2022-09-28T03:06:03.793Z,955.43
2022-09-28T03:07:03.778Z,955.40
2022-09-28T03:08:03.764Z,955.43
2022-09-28T03:09:03.757Z,955.35
2022-09-28T03:10:03.749Z,955.32
2022-09-28T03:11:03.728Z,955.37
2022-09-28T03:12:03.713Z,955.36
2022-09-28T03:13:03.715Z,955.38
2022-09-28T03:14:03.687Z,955.35
2022-09-28T03:15:03.679Z,955.35
2022-09-28T03:16:03.687Z,955.35
2022-09-28T03:17:03.652Z,955.33
2022-09-28T03:18:03.660Z,955.40
2022-09-28T03:19:03.628Z,955.31
2022-09-28T03:20:03.613Z,955.17
2022-09-28T03:21:03.605Z,955.24
2022-09-28T03:22:03.587Z,955.25
2022-09-28T03:23:23.892Z,955.24
2022-09-28T03:24:03.561Z,955.27
2022-09-28T03:25:03.550Z,955.36
2022-09-28T03:26:03.537Z,955.36
2022-09-28T03:27:03.526Z,955.43
2022-09-28T03:28:03.513Z,955.40
2022-09-28T03:29:03.501Z,955.40
2022-09-28T03:30:03.487Z,955.42
2022-09-28T03:31:03.519Z,955.41
2022-09-28T03:32:03.463Z,955.41
2022-09-28T03:33:03.457Z,955.40
2022-09-28T03:34:03.457Z,955.33
2022-09-28T03:35:03.426Z,955.48
2022-09-28T03:36:03.415Z,955.45
2022-09-28T03:37:03.400Z,955.49
2022-09-28T03:38:03.402Z,955.53
2022-09-28T03:39:03.377Z,955.47
2022-09-28T03:40:03.368Z,955.54
2022-09-28T03:41:03.414Z,955.56
2022-09-28T03:42:03.335Z,955.53
2022-09-28T03:43:03.326Z,955.55
2022-09-28T03:44:03.313Z,955.52
2022-09-28T03:45:03.304Z,955.46
2022-09-28T03:46:03.438Z,955.43
2022-09-28T03:47:03.288Z,955.41
2022-09-28T03:48:03.265Z,955.43
2022-09-28T03:49:03.251Z,955.43
2022-09-28T03:50:03.257Z,955.32
2022-09-28T03:51:03.229Z,955.38
2022-09-28T03:52:03.212Z,955.34
2022-09-28T03:53:03.201Z,955.33
2022-09-28T03:54:03.192Z,955.29
2022-09-28T03:55:03.279Z,955.34
2022-09-28T03:56:03.175Z,955.27
2022-09-28T03:57:03.155Z,955.28
2022-09-28T03:58:03.137Z,955.23
2022-09-28T03:59:03.127Z,955.23
2022-09-28T04:00:03.117Z,955.17
2022-09-28T04:01:03.218Z,955.18
2022-09-28T04:02:03.179Z,955.08
2022-09-28T04:03:03.084Z,955.11
2022-09-28T04:04:03.061Z,955.02
2022-09-28T04:05:03.064Z,955.03
2022-09-28T04:06:03.080Z,954.97
2022-09-28T04:07:03.039Z,955.02
2022-09-28T04:08:03.016Z,954.98
2022-09-28T04:09:03.003Z,955.01
2022-09-28T04:10:02.992Z,955.00
2022-09-28T04:11:02.977Z,955.00
2022-09-28T04:12:04.468Z,954.98
2022-09-28T04:13:02.951Z,954.89
2022-09-28T04:14:02.955Z,954.90
2022-09-28T04:15:02.926Z,954.88
2022-09-28T04:16:02.984Z,954.91
2022-09-28T04:17:02.901Z,954.89
2022-09-28T04:18:02.887Z,954.86
2022-09-28T04:19:03.232Z,954.85
2022-09-28T04:20:02.866Z,954.86
2022-09-28T04:21:02.850Z,954.91
2022-09-28T04:22:02.856Z,954.85
2022-09-28T04:23:02.827Z,954.77
2022-09-28T04:24:02.814Z,954.81
2022-09-28T04:25:02.800Z,954.75
2022-09-28T04:26:02.790Z,954.76
2022-09-28T04:27:02.788Z,954.72
2022-09-28T04:28:02.766Z,954.74
2022-09-28T04:29:06.315Z,954.73
2022-09-28T04:30:02.746Z,954.72
2022-09-28T04:31:02.740Z,954.75
2022-09-28T04:32:02.793Z,954.86
2022-09-28T04:33:02.701Z,954.72
2022-09-28T04:34:02.709Z,954.70
2022-09-28T04:35:02.676Z,954.77
2022-09-28T04:36:02.666Z,954.80
2022-09-28T04:37:02.660Z,954.61
2022-09-28T04:38:02.659Z,954.64
2022-09-28T04:39:02.628Z,954.66
2022-09-28T04:40:02.618Z,954.64
2022-09-28T04:41:02.652Z,954.64
2022-09-28T04:42:02.592Z,954.55
2022-09-28T04:43:02.579Z,954.56
2022-09-28T04:44:02.568Z,954.61
2022-09-28T04:45:02.552Z,954.61
2022-09-28T04:46:02.686Z,954.65
2022-09-28T04:47:05.138Z,954.60
2022-09-28T04:48:02.516Z,954.63
2022-09-28T04:49:02.501Z,954.58
2022-09-28T04:50:02.493Z,954.59
2022-09-28T04:51:02.476Z,954.60
2022-09-28T04:52:02.467Z,954.62
2022-09-28T04:53:02.455Z,954.56
2022-09-28T04:54:02.465Z,954.56
2022-09-28T04:55:02.430Z,954.56
2022-09-28T04:56:02.420Z,954.61
2022-09-28T04:57:02.403Z,954.58
2022-09-28T04:58:02.392Z,954.56
2022-09-28T04:59:02.378Z,954.53
2022-09-28T05:00:02.374Z,954.55
2022-09-28T05:01:02.485Z,954.50
2022-09-28T05:02:02.391Z,954.49
2022-09-28T05:03:02.329Z,954.52
2022-09-28T05:04:02.317Z,954.54
2022-09-28T05:05:02.304Z,954.51
2022-09-28T05:06:02.293Z,954.61
2022-09-28T05:07:02.292Z,954.60
2022-09-28T05:08:02.269Z,954.58
2022-09-28T05:09:02.252Z,954.59
2022-09-28T05:10:02.265Z,954.63
2022-09-28T05:11:02.233Z,954.58
2022-09-28T05:12:02.217Z,954.57
2022-09-28T05:13:02.206Z,954.54
2022-09-28T05:14:02.294Z,954.53
2022-09-28T05:15:02.177Z,954.49
2022-09-28T05:16:05.471Z,954.45
2022-09-28T05:17:02.200Z,954.50
2022-09-28T05:18:02.145Z,954.43
2022-09-28T05:19:02.139Z,954.45
2022-09-28T05:20:02.119Z,954.45
2022-09-28T05:21:02.103Z,954.45
2022-09-28T05:22:02.093Z,954.45
2022-09-28T05:23:02.080Z,954.41
2022-09-28T05:24:02.068Z,954.39
2022-09-28T05:25:02.053Z,954.43
2022-09-28T05:26:02.071Z,954.37
2022-09-28T05:27:02.028Z,954.43
2022-09-28T05:28:02.018Z,954.45
2022-09-28T05:29:02.005Z,954.39
2022-09-28T05:30:01.992Z,954.42
2022-09-28T05:31:01.981Z,954.41
2022-09-28T05:32:02.145Z,954.48
2022-09-28T05:33:01.955Z,954.45
2022-09-28T05:34:01.944Z,954.38
2022-09-28T05:35:01.930Z,954.34
2022-09-28T05:36:02.127Z,954.42
2022-09-28T05:37:01.916Z,954.39
2022-09-28T05:38:01.895Z,954.40
2022-09-28T05:39:01.880Z,954.37
2022-09-28T05:40:01.871Z,954.34
2022-09-28T05:41:06.300Z,954.30
2022-09-28T05:42:01.869Z,954.36
2022-09-28T05:43:01.830Z,954.43
2022-09-28T05:44:01.824Z,954.41
2022-09-28T05:45:01.806Z,954.42
2022-09-28T05:46:01.908Z,954.45
2022-09-28T05:47:01.780Z,954.44
2022-09-28T05:48:01.771Z,954.38
2022-09-28T05:49:01.754Z,954.40
2022-09-28T05:50:01.748Z,954.43
2022-09-28T05:51:01.732Z,954.40
2022-09-28T05:52:01.721Z,954.44
2022-09-28T05:53:01.705Z,954.39
2022-09-28T05:54:05.712Z,954.44
2022-09-28T05:55:01.682Z,954.41
2022-09-28T05:56:01.672Z,954.41
2022-09-28T05:57:01.657Z,954.42
2022-09-28T05:58:01.768Z,954.33
2022-09-28T05:59:01.636Z,954.36
2022-09-28T06:00:01.624Z,954.35
2022-09-28T06:01:01.622Z,954.46
2022-09-28T06:02:01.645Z,954.47
2022-09-28T06:03:04.407Z,954.47
2022-09-28T06:04:01.580Z,954.53
2022-09-28T06:05:01.560Z,954.47
2022-09-28T06:06:01.548Z,954.51
2022-09-28T06:07:01.534Z,954.57
2022-09-28T06:08:01.525Z,954.48
2022-09-28T06:09:01.515Z,954.48
2022-09-28T06:10:01.497Z,954.48
2022-09-28T06:11:01.486Z,954.53
2022-09-28T06:12:01.474Z,954.54
2022-09-28T06:13:01.473Z,954.55
2022-09-28T06:14:01.468Z,954.57
2022-09-28T06:15:01.640Z,954.51
2022-09-28T06:16:01.427Z,954.58
2022-09-28T06:17:01.528Z,954.59
2022-09-28T06:18:01.400Z,954.65
2022-09-28T06:19:01.385Z,954.62
2022-09-28T06:20:01.374Z,954.67
2022-09-28T06:21:01.363Z,954.79
2022-09-28T06:22:01.369Z,954.72
2022-09-28T06:23:01.337Z,954.78
2022-09-28T06:24:01.325Z,954.78
2022-09-28T06:25:01.311Z,954.75
2022-09-28T06:26:01.301Z,954.75
2022-09-28T06:27:01.287Z,954.74
2022-09-28T06:28:01.281Z,954.80
2022-09-28T06:29:01.261Z,954.80
2022-09-28T06:30:01.272Z,954.81
2022-09-28T06:31:01.330Z,954.81
2022-09-28T06:32:01.230Z,954.77
2022-09-28T06:33:01.211Z,954.80
2022-09-28T06:34:01.216Z,954.86
2022-09-28T06:35:01.190Z,954.82
2022-09-28T06:36:01.190Z,954.86
2022-09-28T06:37:01.162Z,954.88
2022-09-28T06:38:01.154Z,954.85
2022-09-28T06:39:01.144Z,954.84
2022-09-28T06:40:01.131Z,954.81
2022-09-28T06:41:01.214Z,954.89
2022-09-28T06:42:01.106Z,954.84
2022-09-28T06:43:01.093Z,954.85
2022-09-28T06:44:01.132Z,954.90
2022-09-28T06:45:01.067Z,954.93
2022-09-28T06:46:01.172Z,954.92
2022-09-28T06:47:01.043Z,954.96
2022-09-28T06:48:01.042Z,954.95
2022-09-28T06:49:01.018Z,954.93
2022-09-28T06:50:01.009Z,954.91
2022-09-28T06:51:00.994Z,955.00
2022-09-28T06:52:00.983Z,954.93
2022-09-28T06:53:00.970Z,954.95
2022-09-28T06:54:00.962Z,954.91
2022-09-28T06:55:00.947Z,954.94
2022-09-28T06:56:00.943Z,954.95
2022-09-28T06:57:00.921Z,954.91
2022-09-28T06:58:00.913Z,954.98
2022-09-28T06:59:00.898Z,954.96
2022-09-28T07:00:00.889Z,954.96
2022-09-28T07:01:00.949Z,954.94
2022-09-28T07:02:01.045Z,954.97
2022-09-28T07:03:00.850Z,954.99
2022-09-28T07:04:00.841Z,955.04
2022-09-28T07:05:00.826Z,955.02
2022-09-28T07:06:00.820Z,955.07
2022-09-28T07:07:00.807Z,955.06
2022-09-28T07:08:00.793Z,955.10
2022-09-28T07:09:13.947Z,955.11
2022-09-28T07:10:00.769Z,955.13
2022-09-28T07:11:00.773Z,955.13
2022-09-28T07:12:00.783Z,955.14
2022-09-28T07:13:00.732Z,955.22
2022-09-28T07:14:00.740Z,955.18
2022-09-28T07:15:00.725Z,955.20
2022-09-28T07:16:00.709Z,955.23
2022-09-28T07:17:13.600Z,955.19
2022-09-28T07:18:03.253Z,955.26
2022-09-28T07:19:00.658Z,955.26
2022-09-28T07:20:09.979Z,955.28
2022-09-28T07:21:00.635Z,955.30
2022-09-28T07:22:05.235Z,955.30
2022-09-28T07:23:13.168Z,955.30
2022-09-28T07:24:00.605Z,955.32
2022-09-28T07:25:00.588Z,955.30
2022-09-28T07:26:00.580Z,955.33
2022-09-28T07:27:00.564Z,955.35
2022-09-28T07:28:00.554Z,955.33
2022-09-28T07:29:00.541Z,955.37
2022-09-28T07:30:00.532Z,955.38
2022-09-28T07:31:00.611Z,955.40
2022-09-28T07:32:00.508Z,955.41
2022-09-28T07:33:00.493Z,955.37
2022-09-28T07:34:00.503Z,955.39
2022-09-28T07:35:00.483Z,955.44
2022-09-28T07:36:00.461Z,955.45
2022-09-28T07:37:00.447Z,955.45
2022-09-28T07:38:00.440Z,955.47
2022-09-28T07:39:00.424Z,955.43
2022-09-28T07:40:00.414Z,955.47
2022-09-28T07:41:00.512Z,955.44
2022-09-28T07:42:02.897Z,955.46
2022-09-28T07:43:00.379Z,955.45
2022-09-28T07:44:00.417Z,955.43
2022-09-28T07:45:00.354Z,955.42
2022-09-28T07:46:00.382Z,955.41
2022-09-28T07:47:00.330Z,955.51
2022-09-28T07:48:00.372Z,955.54
2022-09-28T07:49:00.306Z,955.53
2022-09-28T07:50:00.318Z,955.57
2022-09-28T07:51:00.285Z,955.57
2022-09-28T07:52:00.275Z,955.46
2022-09-28T07:53:00.259Z,955.43
2022-09-28T07:54:00.250Z,955.52
2022-09-28T07:55:04.598Z,955.51
2022-09-28T07:56:00.228Z,955.55
2022-09-28T07:57:00.415Z,955.61
2022-09-28T07:58:00.206Z,955.59
2022-09-28T07:59:00.191Z,955.60
2022-09-28T08:00:00.184Z,955.65
2022-09-28T08:01:00.211Z,955.70
2022-09-28T08:02:00.247Z,955.74
2022-09-28T08:03:00.143Z,955.78
2022-09-28T08:04:00.135Z,955.84
2022-09-28T08:05:00.124Z,955.92
2022-09-28T08:06:00.136Z,955.96
2022-09-28T08:07:00.097Z,955.98
2022-09-28T08:08:00.097Z,956.06
2022-09-28T08:09:00.108Z,956.05
2022-09-28T08:10:00.071Z,956.08
2022-09-28T08:11:00.058Z,956.06
2022-09-28T08:12:00.102Z,956.07
2022-09-28T08:13:02.608Z,956.06
2022-09-28T08:14:00.021Z,956.10
2022-09-28T08:15:00.004Z,956.14
2022-09-28T08:15:59.995Z,956.10
2022-09-28T08:16:59.980Z,956.15
2022-09-28T08:18:02.606Z,956.16
2022-09-28T08:18:59.957Z,956.11
2022-09-28T08:19:59.948Z,956.18
2022-09-28T08:20:59.938Z,956.13
2022-09-28T08:21:59.945Z,956.15
2022-09-28T08:22:59.914Z,956.13
2022-09-28T08:23:59.902Z,956.11
2022-09-28T08:24:59.887Z,956.18
2022-09-28T08:25:59.879Z,956.15
2022-09-28T08:26:59.870Z,956.16
2022-09-28T08:27:59.855Z,956.18
2022-09-28T08:28:59.840Z,956.20
2022-09-28T08:29:59.834Z,956.11
2022-09-28T08:30:59.909Z,956.19
2022-09-28T08:32:01.800Z,956.21
2022-09-28T08:32:59.794Z,956.18
2022-09-28T08:33:59.785Z,956.19
2022-09-28T08:34:59.780Z,956.21
2022-09-28T08:35:59.761Z,956.19
2022-09-28T08:36:59.760Z,956.21
2022-09-28T08:37:59.757Z,956.20
2022-09-28T08:38:59.725Z,956.23
2022-09-28T08:39:59.715Z,956.22
2022-09-28T08:40:59.815Z,956.26
2022-09-28T08:41:59.690Z,956.22
2022-09-28T08:42:59.680Z,956.21
2022-09-28T08:43:59.665Z,956.25
2022-09-28T08:44:59.657Z,956.21
2022-09-28T08:45:59.734Z,956.13
2022-09-28T08:46:59.635Z,956.12
2022-09-28T08:47:59.695Z,956.08
2022-09-28T08:49:23.755Z,956.05
2022-09-28T08:49:59.675Z,956.08
2022-09-28T08:50:59.593Z,956.10
2022-09-28T08:51:59.573Z,956.11
2022-09-28T08:52:59.564Z,956.14
2022-09-28T08:53:59.571Z,956.14
2022-09-28T08:54:59.542Z,956.12
2022-09-28T08:55:59.529Z,956.09
2022-09-28T08:56:59.518Z,956.14
2022-09-28T08:57:59.504Z,956.09
2022-09-28T08:58:59.496Z,956.08
2022-09-28T08:59:59.481Z,956.12
2022-09-28T09:00:59.545Z,956.08
2022-09-28T09:01:59.534Z,956.06
2022-09-28T09:02:59.532Z,956.11
2022-09-28T09:03:59.437Z,956.11
2022-09-28T09:04:59.429Z,956.11
2022-09-28T09:05:59.414Z,956.19
2022-09-28T09:06:59.405Z,956.18
2022-09-28T09:07:59.393Z,956.20
2022-09-28T09:08:59.381Z,956.22
2022-09-28T09:09:59.389Z,956.26
2022-09-28T09:10:59.361Z,956.27
2022-09-28T09:11:59.448Z,956.25
2022-09-28T09:12:59.340Z,956.32
2022-09-28T09:13:59.324Z,956.35
2022-09-28T09:14:59.315Z,956.33
2022-09-28T09:15:59.303Z,956.35
2022-09-28T09:17:00.604Z,956.34
2022-09-28T09:17:59.280Z,956.35
2022-09-28T09:18:59.271Z,956.34
2022-09-28T09:19:59.260Z,956.28
2022-09-28T09:20:59.247Z,956.34
2022-09-28T09:21:59.235Z,956.33
2022-09-28T09:22:59.227Z,956.35
2022-09-28T09:23:59.213Z,956.35
2022-09-28T09:24:59.203Z,956.35
2022-09-28T09:25:59.210Z,956.32
2022-09-28T09:26:59.180Z,956.35
2022-09-28T09:27:59.167Z,956.37
2022-09-28T09:28:59.159Z,956.38
2022-09-28T09:29:59.146Z,956.34
2022-09-28T09:30:59.198Z,956.33
2022-09-28T09:31:59.122Z,956.34
2022-09-28T09:32:59.114Z,956.34
2022-09-28T09:33:59.099Z,956.37
2022-09-28T09:34:59.093Z,956.36
2022-09-28T09:35:59.079Z,956.33
2022-09-28T09:36:59.070Z,956.34
2022-09-28T09:37:59.058Z,956.30
2022-09-28T09:38:59.047Z,956.31
2022-09-28T09:39:59.035Z,956.30
2022-09-28T09:40:59.156Z,956.24
2022-09-28T09:41:59.049Z,956.23
2022-09-28T09:42:59.005Z,956.21
2022-09-28T09:43:58.998Z,956.19
2022-09-28T09:44:58.986Z,956.26
2022-09-28T09:45:59.063Z,956.24
2022-09-28T09:46:58.959Z,956.29
2022-09-28T09:47:58.949Z,956.25
2022-09-28T09:48:58.938Z,956.21
2022-09-28T09:49:58.923Z,956.25
2022-09-28T09:50:58.916Z,956.26
2022-09-28T09:51:58.902Z,956.23
2022-09-28T09:52:58.892Z,956.20
2022-09-28T09:53:58.880Z,956.21
2022-09-28T09:54:58.871Z,956.29
2022-09-28T09:55:58.858Z,956.32
2022-09-28T09:56:58.847Z,956.30
2022-09-28T09:57:58.855Z,956.34
2022-09-28T09:58:58.828Z,956.34
2022-09-28T09:59:58.825Z,956.33
2022-09-28T10:00:58.876Z,956.33
2022-09-28T10:01:58.848Z,956.28
2022-09-28T10:02:58.894Z,956.31
2022-09-28T10:03:58.773Z,956.23
2022-09-28T10:04:58.760Z,956.29
2022-09-28T10:05:58.747Z,956.29
2022-09-28T10:06:58.741Z,956.31
2022-09-28T10:07:58.728Z,956.36
2022-09-28T10:08:58.732Z,956.34
2022-09-28T10:09:58.704Z,956.30
2022-09-28T10:10:58.698Z,956.28
2022-09-28T10:11:58.688Z,956.25
2022-09-28T10:12:58.773Z,956.33
2022-09-28T10:13:58.698Z,956.30
2022-09-28T10:14:58.656Z,956.32
2022-09-28T10:15:58.652Z,956.33
2022-09-28T10:16:58.776Z,956.31
2022-09-28T10:17:58.619Z,956.33
2022-09-28T10:18:58.619Z,956.35
2022-09-28T10:19:58.597Z,956.32
2022-09-28T10:20:58.602Z,956.31
2022-09-28T10:21:58.581Z,956.25
2022-09-28T10:22:58.565Z,956.31
2022-09-28T10:23:58.552Z,956.30
2022-09-28T10:24:58.542Z,956.29
2022-09-28T10:25:58.530Z,956.32
2022-09-28T10:26:58.523Z,956.32
2022-09-28T10:27:58.510Z,956.34
2022-09-28T10:28:58.499Z,956.30
2022-09-28T10:29:58.507Z,956.32
2022-09-28T10:30:58.606Z,956.30
2022-09-28T10:31:58.466Z,956.31
2022-09-28T10:32:58.456Z,956.33
2022-09-28T10:33:58.444Z,956.33
2022-09-28T10:34:58.449Z,956.33
2022-09-28T10:35:58.421Z,956.34
2022-09-28T10:36:58.416Z,956.28
2022-09-28T10:37:58.403Z,956.29
2022-09-28T10:38:58.392Z,956.31
2022-09-28T10:39:58.379Z,956.37
2022-09-28T10:40:58.483Z,956.32
2022-09-28T10:41:58.358Z,956.35
2022-09-28T10:42:58.359Z,956.37
2022-09-28T10:43:58.337Z,956.35
2022-09-28T10:44:58.330Z,956.35
2022-09-28T10:45:58.404Z,956.37
2022-09-28T10:46:58.307Z,956.35
2022-09-28T10:47:58.294Z,956.35
2022-09-28T10:48:58.285Z,956.33
2022-09-28T10:49:58.272Z,956.40
2022-09-28T10:50:58.264Z,956.43
2022-09-28T10:51:58.250Z,956.40
2022-09-28T10:52:58.242Z,956.46
2022-09-28T10:53:58.230Z,956.45
2022-09-28T10:54:58.221Z,956.45
2022-09-28T10:55:58.209Z,956.42
2022-09-28T10:56:58.200Z,956.44
2022-09-28T10:57:58.188Z,956.40
2022-09-28T10:58:58.178Z,956.40
2022-09-28T10:59:58.170Z,956.41
2022-09-28T11:00:58.202Z,956.37
2022-09-28T11:01:58.167Z,956.36
2022-09-28T11:02:58.168Z,956.32
2022-09-28T11:03:58.126Z,956.35
2022-09-28T11:04:58.114Z,956.29
2022-09-28T11:05:58.103Z,956.30
2022-09-28T11:07:58.081Z,956.32
2022-09-28T11:08:58.071Z,956.32
2022-09-28T11:09:58.059Z,956.31
2022-09-28T11:11:58.045Z,956.27
2022-09-28T11:12:58.027Z,956.27
2022-09-28T11:13:58.220Z,956.26
2022-09-28T11:14:58.005Z,956.27
2022-09-28T11:15:57.998Z,956.25
2022-09-28T11:16:58.010Z,956.27
2022-09-28T11:17:57.994Z,956.32
2022-09-28T11:18:57.964Z,956.34
2022-09-28T11:19:57.954Z,956.32
2022-09-28T11:20:57.944Z,956.34
2022-09-28T11:21:57.935Z,956.35
2022-09-28T11:22:57.922Z,956.40
2022-09-28T11:23:58.117Z,956.35
2022-09-28T11:24:57.906Z,956.34
2022-09-28T11:25:57.891Z,956.35
2022-09-28T11:26:57.885Z,956.35
2022-09-28T11:27:57.871Z,956.28
2022-09-28T11:28:57.857Z,956.26
2022-09-28T11:29:57.848Z,956.29
2022-09-28T11:30:58.061Z,956.34
2022-09-28T11:31:57.827Z,956.39
2022-09-28T11:32:57.814Z,956.43
2022-09-28T11:33:57.824Z,956.41
2022-09-28T11:35:00.110Z,956.42
2022-09-28T11:35:57.788Z,956.45
2022-09-28T11:37:01.594Z,956.44
2022-09-28T11:37:57.766Z,956.45
2022-09-28T11:38:57.749Z,956.47
2022-09-28T11:39:57.742Z,956.49
2022-09-28T11:40:57.787Z,956.52
2022-09-28T11:41:57.719Z,956.51
2022-09-28T11:42:57.756Z,956.49
2022-09-28T11:43:57.697Z,956.44
2022-09-28T11:44:57.689Z,956.39
2022-09-28T11:45:57.707Z,956.38
2022-09-28T11:46:57.664Z,956.33
2022-09-28T11:47:57.654Z,956.34
2022-09-28T11:48:57.653Z,956.29
2022-09-28T11:49:57.661Z,956.24
2022-09-28T11:50:57.619Z,956.22
2022-09-28T11:51:57.612Z,956.22
2022-09-28T11:52:57.597Z,956.16
2022-09-28T11:53:57.589Z,956.19
2022-09-28T11:54:57.577Z,956.18
2022-09-28T11:55:57.566Z,956.22
2022-09-28T11:56:57.554Z,956.26
2022-09-28T11:57:57.546Z,956.26
2022-09-28T11:58:57.532Z,956.39
2022-09-28T11:59:57.526Z,956.44
2022-09-28T12:00:57.511Z,956.50
2022-09-28T12:01:57.544Z,956.57
2022-09-28T12:02:57.676Z,956.57
2022-09-28T12:03:57.480Z,956.55
2022-09-28T12:04:57.467Z,956.52
2022-09-28T12:05:57.475Z,956.49
2022-09-28T12:06:57.444Z,956.55
2022-09-28T12:07:57.435Z,956.57
2022-09-28T12:08:57.422Z,956.57
2022-09-28T12:09:57.413Z,956.52
2022-09-28T12:10:57.400Z,956.45
2022-09-28T12:11:57.391Z,956.42
2022-09-28T12:12:57.377Z,956.44
2022-09-28T12:13:57.367Z,956.43
2022-09-28T12:14:57.356Z,956.47
2022-09-28T12:16:27.299Z,956.50
2022-09-28T12:17:07.450Z,956.51
2022-09-28T12:17:57.367Z,956.48
2022-09-28T12:18:57.407Z,956.58
2022-09-28T12:19:57.304Z,956.61
2022-09-28T12:21:00.541Z,956.61
2022-09-28T12:21:57.299Z,956.61
2022-09-28T12:22:57.265Z,956.68
2022-09-28T12:23:57.257Z,956.69
2022-09-28T12:24:57.243Z,956.68
2022-09-28T12:25:57.235Z,956.64
2022-09-28T12:26:57.222Z,956.68
2022-09-28T12:27:57.213Z,956.68
2022-09-28T12:28:57.199Z,956.69
2022-09-28T12:29:57.189Z,956.68
2022-09-28T12:30:57.239Z,956.70